Time;durP1;ratioP1;P1;durP2;ratioP2;P2;SDS_P1;SDS_P2;PMS_P1;PMS_P2;Temp;Humidity;BMP_temperature;BMP_pressure;BME280_temperature;BME280_humidity;BME280_pressure;Samples;Min_cycle;Max_cycle;Signal;HPM_P1;HPM_P2
2023/07/20 00:01:55;;;;;;;4.78;2.60;;;;;;;;;;6225329;23;20034;-92
2023/07/20 00:04:21;;;;;;;4.45;2.45;;;;;;;;;;6234752;23;20024;-93
2023/07/20 00:06:47;;;;;;;5.68;2.65;;;;;;;;;;6234103;23;20022;-92
2023/07/20 00:09:13;;;;;;;2.45;2.00;;;;;;;;;;6221670;23;20075;-92
2023/07/20 00:11:40;;;;;;;5.85;2.85;;;;;;;;;;6219063;23;20001;-94
2023/07/20 00:14:06;;;;;;;6.65;2.65;;;;;;;;;;6216262;23;20028;-93
2023/07/20 00:16:32;;;;;;;3.00;2.15;;;;;;;;;;6211678;23;20008;-92
2023/07/20 00:18:59;;;;;;;6.03;2.60;;;;;;;;;;6213599;23;20032;-92
2023/07/20 00:21:25;;;;;;;5.88;2.22;;;;;;;;;;6239051;23;20324;-92
2023/07/20 00:23:51;;;;;;;3.58;1.85;;;;;;;;;;6238185;23;20438;-92
2023/07/20 00:26:17;;;;;;;3.38;2.38;;;;;;;;;;6213689;23;20023;-92
2023/07/20 00:28:44;;;;;;;4.68;2.58;;;;;;;;;;6238123;23;20086;-92
2023/07/20 00:31:10;;;;;;;6.50;2.72;;;;;;;;;;6213347;23;20408;-92
2023/07/20 00:33:36;;;;;;;5.43;2.42;;;;;;;;;;6238310;23;20395;-92
2023/07/20 00:36:02;;;;;;;4.78;2.63;;;;;;;;;;6212039;23;20039;-93
2023/07/20 00:38:28;;;;;;;2.78;2.50;;;;;;;;;;6214079;23;20341;-93
2023/07/20 00:40:54;;;;;;;4.75;2.45;;;;;;;;;;6211426;23;20012;-92
2023/07/20 00:43:20;;;;;;;8.90;3.30;;;;;;;;;;6212434;23;20012;-92
2023/07/20 00:45:46;;;;;;;5.65;2.90;;;;;;;;;;6237358;23;20012;-93
2023/07/20 00:48:13;;;;;;;7.35;2.53;;;;;;;;;;6237825;23;20004;-93
2023/07/20 00:50:40;;;;;;;4.75;2.47;;;;;;;;;;6237885;22;20508;-92
2023/07/20 00:53:06;;;;;;;8.90;2.88;;;;;;;;;;6213301;23;20012;-93
2023/07/20 00:55:32;;;;;;;5.93;2.50;;;;;;;;;;6236787;23;20036;-93
2023/07/20 00:57:59;;;;;;;3.20;2.88;;;;;;;;;;6214442;23;20031;-92
2023/07/20 01:00:26;;;;;;;5.85;2.20;;;;;;;;;;6211792;22;20044;-92
2023/07/20 01:02:52;;;;;;;3.90;2.72;;;;;;;;;;6240117;23;20038;-92
2023/07/20 01:05:18;;;;;;;3.20;2.40;;;;;;;;;;6237833;23;20311;-92
2023/07/20 01:08:14;;;;;;;5.20;2.22;;;;;;;;;;6214513;23;20019;-93
2023/07/20 01:10:45;;;;;;;7.40;2.70;;;;;;;;;;6198419;23;20450;-93
2023/07/20 01:13:12;;;;;;;5.03;2.60;;;;;;;;;;6241170;22;20842;-91
2023/07/20 01:15:39;;;;;;;6.65;2.80;;;;;;;;;;6239112;23;20000;-92
2023/07/20 01:18:05;;;;;;;6.20;2.45;;;;;;;;;;6214715;23;20043;-94
2023/07/20 01:20:32;;;;;;;6.68;2.33;;;;;;;;;;6214332;23;20097;-92
2023/07/20 01:23:09;;;;;;;5.07;2.10;;;;;;;;;;6213845;23;20008;-91
2023/07/20 01:25:45;;;;;;;7.72;2.63;;;;;;;;;;6241522;23;20094;-90
2023/07/20 01:28:29;;;;;;;2.80;2.33;;;;;;;;;;6240266;23;20054;-90
2023/07/20 01:30:56;;;;;;;5.05;2.50;;;;;;;;;;6240364;23;20267;-91
2023/07/20 01:33:22;;;;;;;5.47;2.63;;;;;;;;;;6241137;23;20517;-90
2023/07/20 01:35:51;;;;;;;3.45;2.40;;;;;;;;;;6244872;23;20425;-91
2023/07/20 01:38:19;;;;;;;3.50;2.50;;;;;;;;;;6245176;23;20040;-91
2023/07/20 01:40:45;;;;;;;4.20;2.60;;;;;;;;;;6244360;23;20015;-92
2023/07/20 01:43:12;;;;;;;7.40;2.40;;;;;;;;;;6244811;23;20036;-92
2023/07/20 01:45:38;;;;;;;8.95;2.47;;;;;;;;;;6220467;23;20095;-93
2023/07/20 01:48:04;;;;;;;3.50;2.50;;;;;;;;;;6219239;23;20031;-90
2023/07/20 01:50:30;;;;;;;3.88;2.38;;;;;;;;;;6243573;22;20354;-92
2023/07/20 01:52:56;;;;;;;3.10;2.22;;;;;;;;;;6219762;23;20087;-93
2023/07/20 01:55:22;;;;;;;4.28;2.65;;;;;;;;;;6216377;23;20043;-93
2023/07/20 01:57:48;;;;;;;4.28;2.60;;;;;;;;;;6222272;23;20327;-90
2023/07/20 02:00:14;;;;;;;4.47;2.53;;;;;;;;;;6225873;22;20537;-89
2023/07/20 02:02:42;;;;;;;3.88;2.72;;;;;;;;;;6226248;23;20027;-90
2023/07/20 02:05:08;;;;;;;3.72;2.58;;;;;;;;;;6227249;23;20019;-92
2023/07/20 02:07:34;;;;;;;3.13;2.22;;;;;;;;;;6226703;23;20667;-91
2023/07/20 02:10:00;;;;;;;7.93;2.67;;;;;;;;;;6225752;23;20001;-91
2023/07/20 02:12:26;;;;;;;5.53;2.25;;;;;;;;;;6227127;23;20076;-92
2023/07/20 02:14:52;;;;;;;3.33;2.53;;;;;;;;;;6227919;23;20064;-93
2023/07/20 02:17:19;;;;;;;4.30;2.85;;;;;;;;;;6224382;23;20033;-91
2023/07/20 02:19:45;;;;;;;6.53;2.45;;;;;;;;;;6225532;23;20074;-92
2023/07/20 02:22:11;;;;;;;6.60;2.40;;;;;;;;;;6226467;23;20008;-90
2023/07/20 02:24:37;;;;;;;7.13;2.80;;;;;;;;;;6226385;23;20055;-91
2023/07/20 02:27:03;;;;;;;5.05;2.45;;;;;;;;;;6225142;23;20434;-92
2023/07/20 02:29:29;;;;;;;3.80;2.28;;;;;;;;;;6223643;23;20406;-93
2023/07/20 02:31:55;;;;;;;5.25;2.40;;;;;;;;;;6250679;23;20008;-91
2023/07/20 02:34:21;;;;;;;3.72;2.45;;;;;;;;;;6225438;23;20015;-90
2023/07/20 02:36:48;;;;;;;4.55;2.35;;;;;;;;;;6225476;23;20307;-92
2023/07/20 02:39:14;;;;;;;6.07;2.65;;;;;;;;;;6252524;22;20007;-92
2023/07/20 02:41:40;;;;;;;4.85;2.42;;;;;;;;;;6250786;23;20007;-91
2023/07/20 02:44:06;;;;;;;5.45;2.50;;;;;;;;;;6223988;23;20024;-92
2023/07/20 02:46:35;;;;;;;4.35;2.42;;;;;;;;;;6222145;23;20039;-91
2023/07/20 02:49:01;;;;;;;4.38;2.30;;;;;;;;;;6222774;23;20035;-91
2023/07/20 02:51:34;;;;;;;4.75;2.13;;;;;;;;;;6221955;22;20027;-93
2023/07/20 02:54:01;;;;;;;5.55;2.50;;;;;;;;;;6226879;23;20012;-90
2023/07/20 02:56:27;;;;;;;7.15;3.00;;;;;;;;;;6221263;23;20035;-90
2023/07/20 02:58:53;;;;;;;4.45;2.30;;;;;;;;;;6245749;23;20013;-91
2023/07/20 03:01:19;;;;;;;8.82;2.25;;;;;;;;;;6242033;22;20652;-91
2023/07/20 03:03:46;;;;;;;4.10;2.28;;;;;;;;;;6216637;23;20098;-91
2023/07/20 03:06:14;;;;;;;3.22;2.20;;;;;;;;;;6218011;23;20659;-90
2023/07/20 03:08:41;;;;;;;4.68;2.38;;;;;;;;;;6248414;22;20004;-89
2023/07/20 03:11:07;;;;;;;2.97;1.88;;;;;;;;;;6245310;23;20434;-91
2023/07/20 03:13:33;;;;;;;3.08;2.20;;;;;;;;;;6222161;23;20005;-91
2023/07/20 03:15:59;;;;;;;2.95;2.30;;;;;;;;;;6245047;23;20004;-91
2023/07/20 03:18:26;;;;;;;4.07;2.10;;;;;;;;;;6219739;23;20015;-89
2023/07/20 03:20:52;;;;;;;4.90;2.00;;;;;;;;;;6216344;23;20016;-90
2023/07/20 03:23:18;;;;;;;5.25;2.10;;;;;;;;;;6222220;23;20016;-90
2023/07/20 03:25:44;;;;;;;4.75;2.22;;;;;;;;;;6220108;23;20016;-89
2023/07/20 03:28:10;;;;;;;6.82;2.30;;;;;;;;;;6216587;23;20364;-90
2023/07/20 03:30:36;;;;;;;5.93;2.42;;;;;;;;;;6214595;23;20016;-90
2023/07/20 03:33:03;;;;;;;2.78;2.30;;;;;;;;;;6216879;23;20008;-90
2023/07/20 03:35:31;;;;;;;3.67;2.22;;;;;;;;;;6242614;23;20004;-90
2023/07/20 03:37:57;;;;;;;5.05;2.40;;;;;;;;;;6217079;23;20062;-90
2023/07/20 03:40:23;;;;;;;4.90;2.60;;;;;;;;;;6221564;23;20016;-91
2023/07/20 03:42:50;;;;;;;3.60;2.40;;;;;;;;;;6220501;23;20409;-89
2023/07/20 03:45:16;;;;;;;8.95;2.53;;;;;;;;;;6247228;23;20471;-90
2023/07/20 03:47:44;;;;;;;6.45;2.80;;;;;;;;;;6248138;23;20015;-91
2023/07/20 03:50:22;;;;;;;3.65;2.58;;;;;;;;;;6248934;22;20019;-91
2023/07/20 03:52:49;;;;;;;4.65;2.67;;;;;;;;;;6223640;23;20008;-91
2023/07/20 03:55:15;;;;;;;4.20;3.03;;;;;;;;;;6221235;23;20066;-92
2023/07/20 03:57:42;;;;;;;5.75;2.60;;;;;;;;;;6221390;23;20012;-92
2023/07/20 04:00:09;;;;;;;4.65;2.45;;;;;;;;;;6222094;23;20016;-93
2023/07/20 04:02:43;;;;;;;7.82;2.60;;;;;;;;;;6223027;23;20019;-92
2023/07/20 04:05:09;;;;;;;12.68;3.13;;;;;;;;;;6219584;23;20473;-92
2023/07/20 04:07:35;;;;;;;5.15;2.75;;;;;;;;;;6245309;23;20004;-92
2023/07/20 04:10:01;;;;;;;8.32;3.67;;;;;;;;;;6220540;23;20102;-91
2023/07/20 04:12:27;;;;;;;4.05;2.85;;;;;;;;;;6219970;23;20381;-92
2023/07/20 04:14:53;;;;;;;3.85;3.05;;;;;;;;;;6221129;23;20000;-91
2023/07/20 04:17:19;;;;;;;5.70;3.33;;;;;;;;;;6221370;23;20004;-91
2023/07/20 04:19:45;;;;;;;7.00;3.13;;;;;;;;;;6221304;23;20105;-93
2023/07/20 04:22:11;;;;;;;13.10;3.95;;;;;;;;;;6221749;23;20008;-92
2023/07/20 04:24:37;;;;;;;8.98;3.70;;;;;;;;;;6223722;23;20074;-91
2023/07/20 04:27:03;;;;;;;6.53;3.40;;;;;;;;;;6247834;23;20000;-90
2023/07/20 04:29:29;;;;;;;7.13;3.55;;;;;;;;;;6223224;23;20011;-90
2023/07/20 04:31:56;;;;;;;5.20;3.13;;;;;;;;;;6223542;23;20020;-91
2023/07/20 04:34:23;;;;;;;6.05;3.35;;;;;;;;;;6225909;23;20054;-91
2023/07/20 04:36:49;;;;;;;5.25;3.08;;;;;;;;;;6226307;23;20016;-91
2023/07/20 04:39:15;;;;;;;8.60;2.80;;;;;;;;;;6250012;23;20016;-91
2023/07/20 04:41:41;;;;;;;8.93;2.97;;;;;;;;;;6225615;23;20008;-89
2023/07/20 04:44:07;;;;;;;5.78;3.60;;;;;;;;;;6226123;23;20012;-91
2023/07/20 04:46:33;;;;;;;9.88;3.95;;;;;;;;;;6224587;23;20016;-89
2023/07/20 04:48:59;;;;;;;7.05;4.00;;;;;;;;;;6251975;23;20008;-89
2023/07/20 04:51:38;;;;;;;6.32;3.90;;;;;;;;;;6226654;22;20020;-89
2023/07/20 04:54:04;;;;;;;6.43;3.83;;;;;;;;;;6228525;23;20004;-88
2023/07/20 04:56:31;;;;;;;10.73;3.97;;;;;;;;;;6225857;23;20012;-90
2023/07/20 04:58:57;;;;;;;4.15;3.20;;;;;;;;;;6250042;23;20450;-90
2023/07/20 05:01:24;;;;;;;7.32;3.22;;;;;;;;;;6223793;23;20013;-87
2023/07/20 05:03:50;;;;;;;6.78;3.53;;;;;;;;;;6224379;23;20015;-87
2023/07/20 05:06:17;;;;;;;9.60;3.20;;;;;;;;;;6221432;23;20008;-89
2023/07/20 05:08:44;;;;;;;5.25;2.88;;;;;;;;;;6249850;23;20390;-89
2023/07/20 05:11:10;;;;;;;5.95;2.45;;;;;;;;;;6250760;23;20015;-89
2023/07/20 05:13:37;;;;;;;6.38;2.05;;;;;;;;;;6224838;23;20005;-90
2023/07/20 05:16:03;;;;;;;3.97;1.85;;;;;;;;;;6222523;23;20016;-90
2023/07/20 05:18:29;;;;;;;2.95;1.52;;;;;;;;;;6248258;23;20012;-90
2023/07/20 05:20:55;;;;;;;8.00;1.83;;;;;;;;;;6248365;23;20019;-90
2023/07/20 05:23:22;;;;;;;5.68;1.85;;;;;;;;;;6222601;23;20031;-90
2023/07/20 05:25:48;;;;;;;2.58;1.33;;;;;;;;;;6221915;23;20008;-89
2023/07/20 05:28:14;;;;;;;5.72;1.70;;;;;;;;;;6248888;23;20004;-90
2023/07/20 05:30:41;;;;;;;4.78;1.42;;;;;;;;;;6246750;23;20545;-89
2023/07/20 05:33:07;;;;;;;2.22;1.40;;;;;;;;;;6242121;23;20499;-88
2023/07/20 05:35:33;;;;;;;2.35;1.10;;;;;;;;;;6219299;23;20008;-88
2023/07/20 05:37:59;;;;;;;7.05;1.42;;;;;;;;;;6244135;23;20004;-89
2023/07/20 05:40:26;;;;;;;3.55;1.17;;;;;;;;;;6216246;23;20442;-87
2023/07/20 05:42:53;;;;;;;5.82;1.38;;;;;;;;;;6215215;23;20008;-89
2023/07/20 05:45:20;;;;;;;2.55;1.10;;;;;;;;;;6220289;23;20080;-89
2023/07/20 05:47:47;;;;;;;5.72;1.67;;;;;;;;;;6242594;23;20728;-89
2023/07/20 05:50:13;;;;;;;2.17;1.17;;;;;;;;;;6244484;23;20036;-89
2023/07/20 05:52:39;;;;;;;3.17;1.65;;;;;;;;;;6245448;22;20074;-89
2023/07/20 05:55:08;;;;;;;2.10;1.45;;;;;;;;;;6218193;23;20442;-89
2023/07/20 05:57:35;;;;;;;7.18;1.63;;;;;;;;;;6245494;23;20351;-88
2023/07/20 06:00:01;;;;;;;8.30;1.40;;;;;;;;;;6245792;23;20450;-89
2023/07/20 06:02:28;;;;;;;1.98;1.15;;;;;;;;;;6245433;22;20016;-89
2023/07/20 06:04:55;;;;;;;2.15;1.10;;;;;;;;;;6243639;23;20020;-89
2023/07/20 06:07:21;;;;;;;5.28;1.45;;;;;;;;;;6245429;23;20004;-89
2023/07/20 06:09:47;;;;;;;1.13;0.80;;;;;;;;;;6221435;23;20343;-88
2023/07/20 06:12:13;;;;;;;3.92;0.90;;;;;;;;;;6220699;23;20011;-88
2023/07/20 06:14:39;;;;;;;2.83;1.17;;;;;;;;;;6221087;23;20040;-89
2023/07/20 06:17:06;;;;;;;6.10;1.15;;;;;;;;;;6217647;23;20019;-87
2023/07/20 06:19:32;;;;;;;4.70;1.15;;;;;;;;;;6215731;23;20346;-88
2023/07/20 06:21:58;;;;;;;3.50;1.08;;;;;;;;;;6240746;23;20594;-88
2023/07/20 06:24:24;;;;;;;3.55;1.05;;;;;;;;;;6216144;23;20012;-88
2023/07/20 06:26:50;;;;;;;2.30;1.00;;;;;;;;;;6239856;23;20074;-89
2023/07/20 06:29:16;;;;;;;3.10;1.20;;;;;;;;;;6243408;23;20008;-89
2023/07/20 06:31:42;;;;;;;3.55;1.02;;;;;;;;;;6219860;23;20035;-88
2023/07/20 06:34:08;;;;;;;1.98;1.10;;;;;;;;;;6219205;23;20008;-88
2023/07/20 06:36:35;;;;;;;1.80;1.38;;;;;;;;;;6219003;23;20083;-89
2023/07/20 06:39:02;;;;;;;8.18;1.38;;;;;;;;;;6247945;23;20024;-89
2023/07/20 06:41:28;;;;;;;3.63;1.10;;;;;;;;;;6221176;23;20091;-89
2023/07/20 06:43:57;;;;;;;4.28;1.20;;;;;;;;;;6219915;23;20023;-89
2023/07/20 06:46:27;;;;;;;5.28;1.52;;;;;;;;;;6245212;23;20036;-88
2023/07/20 06:48:54;;;;;;;5.32;1.60;;;;;;;;;;6220031;23;20023;-89
2023/07/20 06:51:34;;;;;;;2.75;1.55;;;;;;;;;;6249702;22;20465;-88
2023/07/20 06:54:00;;;;;;;3.92;1.48;;;;;;;;;;6245678;23;20126;-89
2023/07/20 06:56:26;;;;;;;7.88;1.95;;;;;;;;;;6219573;23;20008;-88
2023/07/20 06:58:52;;;;;;;7.57;1.90;;;;;;;;;;6246293;23;20046;-89
2023/07/20 07:01:20;;;;;;;5.40;1.80;;;;;;;;;;6220550;23;20015;-89
2023/07/20 07:03:46;;;;;;;3.85;1.63;;;;;;;;;;6245539;23;20543;-88
2023/07/20 07:06:12;;;;;;;4.20;1.85;;;;;;;;;;6219874;23;20016;-89
2023/07/20 07:08:42;;;;;;;3.88;1.80;;;;;;;;;;6221956;23;20016;-89
2023/07/20 07:11:09;;;;;;;6.68;1.58;;;;;;;;;;6220830;23;20028;-89
2023/07/20 07:13:38;;;;;;;5.75;1.80;;;;;;;;;;6246161;23;20039;-89
2023/07/20 07:16:04;;;;;;;4.70;1.70;;;;;;;;;;6222056;23;20088;-89
2023/07/20 07:18:34;;;;;;;2.28;1.60;;;;;;;;;;6222432;23;20047;-89
2023/07/20 07:21:00;;;;;;;7.00;1.50;;;;;;;;;;6247519;23;20015;-89
2023/07/20 07:23:27;;;;;;;4.07;1.90;;;;;;;;;;6221893;23;20012;-90
2023/07/20 07:25:53;;;;;;;5.65;1.75;;;;;;;;;;6222093;23;20012;-89
2023/07/20 07:28:19;;;;;;;3.90;1.98;;;;;;;;;;6245410;23;20035;-90
2023/07/20 07:30:45;;;;;;;5.90;1.77;;;;;;;;;;6220117;23;20008;-89
2023/07/20 07:33:11;;;;;;;7.10;1.88;;;;;;;;;;6219968;23;20008;-90
2023/07/20 07:35:38;;;;;;;7.80;1.98;;;;;;;;;;6220589;23;20008;-89
2023/07/20 07:38:05;;;;;;;2.83;1.60;;;;;;;;;;6245255;23;20012;-89
2023/07/20 07:40:31;;;;;;;5.05;2.10;;;;;;;;;;6221255;23;20018;-88
2023/07/20 07:42:57;;;;;;;5.47;2.03;;;;;;;;;;6219120;23;20020;-90
2023/07/20 07:45:23;;;;;;;4.00;1.98;;;;;;;;;;6221752;23;20016;-89
2023/07/20 07:47:49;;;;;;;5.53;1.65;;;;;;;;;;6244405;23;20514;-89
2023/07/20 07:50:15;;;;;;;7.78;1.98;;;;;;;;;;6244565;23;20004;-89
2023/07/20 07:52:42;;;;;;;2.90;1.40;;;;;;;;;;6246184;22;20020;-88
2023/07/20 07:55:08;;;;;;;5.90;1.70;;;;;;;;;;6244608;23;20342;-89
2023/07/20 07:57:34;;;;;;;4.95;1.75;;;;;;;;;;6244995;23;20418;-88
2023/07/20 08:00:00;;;;;;;3.38;1.55;;;;;;;;;;6219612;23;20031;-89
2023/07/20 08:02:26;;;;;;;3.70;1.45;;;;;;;;;;6220279;23;20019;-88
2023/07/20 08:04:52;;;;;;;4.22;1.60;;;;;;;;;;6218937;23;20019;-89
2023/07/20 08:07:18;;;;;;;4.05;1.45;;;;;;;;;;6219247;23;20019;-89
2023/07/20 08:09:47;;;;;;;3.03;1.67;;;;;;;;;;6244601;23;20032;-88
2023/07/20 08:12:13;;;;;;;3.70;1.20;;;;;;;;;;6221099;23;20452;-89
2023/07/20 08:14:39;;;;;;;7.95;1.45;;;;;;;;;;6219909;23;20094;-89
2023/07/20 08:17:05;;;;;;;3.03;1.00;;;;;;;;;;6245832;23;20007;-88
2023/07/20 08:19:31;;;;;;;5.80;1.35;;;;;;;;;;6218404;23;20442;-88
2023/07/20 08:21:58;;;;;;;5.88;1.40;;;;;;;;;;6218614;23;20111;-88
2023/07/20 08:24:24;;;;;;;3.85;1.40;;;;;;;;;;6220104;23;20012;-89
2023/07/20 08:26:50;;;;;;;5.07;1.50;;;;;;;;;;6219527;23;20012;-88
2023/07/20 08:29:19;;;;;;;2.05;1.38;;;;;;;;;;6218906;23;20012;-89
2023/07/20 08:31:45;;;;;;;6.40;1.30;;;;;;;;;;6219217;23;20012;-90
2023/07/20 08:34:11;;;;;;;7.45;1.40;;;;;;;;;;6218857;23;20008;-89
2023/07/20 08:36:37;;;;;;;1.48;1.25;;;;;;;;;;6219114;23;20032;-90
2023/07/20 08:39:04;;;;;;;5.85;0.95;;;;;;;;;;6219276;23;20114;-90
2023/07/20 08:41:30;;;;;;;2.13;0.98;;;;;;;;;;6220069;23;20090;-89
2023/07/20 08:43:57;;;;;;;2.63;1.13;;;;;;;;;;6220366;23;20019;-90
2023/07/20 08:46:24;;;;;;;2.72;1.38;;;;;;;;;;6243465;23;20012;-89
2023/07/20 08:48:50;;;;;;;2.42;1.40;;;;;;;;;;6244243;23;20008;-88
2023/07/20 08:51:20;;;;;;;5.57;1.38;;;;;;;;;;6243888;23;20047;-89
2023/07/20 08:53:48;;;;;;;1.80;0.90;;;;;;;;;;6243792;22;20755;-89
2023/07/20 08:56:15;;;;;;;3.58;1.23;;;;;;;;;;6217705;23;20445;-90
2023/07/20 08:58:44;;;;;;;6.63;0.70;;;;;;;;;;6241137;23;20004;-89
2023/07/20 09:01:11;;;;;;;4.43;0.85;;;;;;;;;;6238937;22;20551;-88
2023/07/20 09:03:39;;;;;;;4.97;1.08;;;;;;;;;;6242309;23;20015;-89
2023/07/20 09:06:10;;;;;;;2.45;1.00;;;;;;;;;;6221902;23;20095;-89
2023/07/20 09:08:39;;;;;;;6.82;0.93;;;;;;;;;;6233862;23;20385;-90
2023/07/20 09:11:09;;;;;;;2.38;0.85;;;;;;;;;;6251863;23;20007;-90
2023/07/20 09:13:41;;;;;;;1.60;1.00;;;;;;;;;;6234788;23;20027;-90
2023/07/20 09:16:21;;;;;;;8.30;1.27;;;;;;;;;;6231736;23;20015;-90
2023/07/20 09:18:47;;;;;;;3.38;1.00;;;;;;;;;;6229088;23;20016;-90
2023/07/20 09:21:18;;;;;;;3.72;0.90;;;;;;;;;;6228034;23;20028;-89
2023/07/20 09:23:44;;;;;;;1.35;0.90;;;;;;;;;;6256431;23;20008;-89
2023/07/20 09:26:12;;;;;;;4.28;1.60;;;;;;;;;;6233240;23;20461;-89
2023/07/20 09:31:35;;;;;;;3.50;1.30;;;;;;;;;;6259015;23;20011;-89
2023/07/20 09:34:08;;;;;;;2.28;1.20;;;;;;;;;;6257890;23;20059;-90
2023/07/20 09:36:37;;;;;;;1.38;0.90;;;;;;;;;;6256350;23;20004;-89
2023/07/20 09:39:05;;;;;;;4.32;1.02;;;;;;;;;;6253477;23;20046;-89
2023/07/20 09:41:41;;;;;;;1.58;0.70;;;;;;;;;;6253455;23;20004;-89
2023/07/20 09:44:14;;;;;;;1.35;0.80;;;;;;;;;;6257701;23;20639;-89
2023/07/20 09:46:55;;;;;;;6.72;1.05;;;;;;;;;;6232372;23;20042;-88
2023/07/20 09:49:22;;;;;;;2.72;1.10;;;;;;;;;;6249664;23;20689;-90
2023/07/20 09:52:10;;;;;;;;;;;;;;;;;;;;;
2023/07/20 09:54:40;;;;;;;3.53;0.70;;;;;;;;;;6207460;23;20032;-89
2023/07/20 09:57:11;;;;;;;4.55;1.05;;;;;;;;;;6173633;23;20020;-90
2023/07/20 09:59:38;;;;;;;1.58;1.05;;;;;;;;;;6168839;23;20128;-90
2023/07/20 10:02:08;;;;;;;4.80;1.10;;;;;;;;;;6165646;23;20009;-90
2023/07/20 10:04:35;;;;;;;1.00;0.90;;;;;;;;;;6190385;23;20026;-90
2023/07/20 10:07:06;;;;;;;1.45;0.82;;;;;;;;;;6192041;23;20529;-91
2023/07/20 10:09:32;;;;;;;4.18;1.75;;;;;;;;;;6192734;23;20596;-86
2023/07/20 10:12:02;;;;;;;1.63;0.70;;;;;;;;;;6191776;23;20612;-87
2023/07/20 10:14:34;;;;;;;1.27;0.80;;;;;;;;;;6193216;23;20001;-89
2023/07/20 10:17:02;;;;;;;2.75;1.02;;;;;;;;;;6220105;23;20450;-88
2023/07/20 10:19:34;;;;;;;3.13;1.17;;;;;;;;;;6164196;23;20016;-91
2023/07/20 10:22:04;;;;;;;3.22;0.77;;;;;;;;;;6191079;23;20017;-89
2023/07/20 10:24:30;;;;;;;1.90;0.95;;;;;;;;;;6191261;23;20009;-91
2023/07/20 10:26:57;;;;;;;4.78;1.17;;;;;;;;;;6163928;23;20017;-90
2023/07/20 10:29:24;;;;;;;2.63;1.00;;;;;;;;;;6164868;23;20012;-90
2023/07/20 10:31:50;;;;;;;3.28;0.80;;;;;;;;;;6189378;23;20007;-91
2023/07/20 10:34:17;;;;;;;4.53;0.95;;;;;;;;;;6167069;23;20098;-91
2023/07/20 10:36:52;;;;;;;2.22;1.00;;;;;;;;;;6169117;23;20604;-89
2023/07/20 10:39:27;;;;;;;3.08;1.33;;;;;;;;;;6167081;23;20039;-91
2023/07/20 10:42:04;;;;;;;1.38;0.70;;;;;;;;;;6188752;23;20008;-90
2023/07/20 10:44:33;;;;;;;1.65;1.05;;;;;;;;;;6189324;23;20399;-88
2023/07/20 10:47:03;;;;;;;2.22;1.13;;;;;;;;;;6164076;23;20008;-90
2023/07/20 10:49:29;;;;;;;2.47;1.30;;;;;;;;;;6190573;23;20016;-91
2023/07/20 10:52:32;;;;;;;1.50;1.02;;;;;;;;;;6191745;23;20012;-91
2023/07/20 10:55:11;;;;;;;2.33;1.10;;;;;;;;;;6181457;23;20481;-91
2023/07/20 10:57:46;;;;;;;1.77;1.30;;;;;;;;;;6226427;23;20063;-90
2023/07/20 11:00:46;;;;;;;1.92;0.93;;;;;;;;;;6202078;23;20087;-91
2023/07/20 11:03:28;;;;;;;0.70;0.70;;;;;;;;;;6180199;23;20393;-90
2023/07/20 11:05:54;;;;;;;2.90;1.33;;;;;;;;;;6192249;23;20088;-90
2023/07/20 11:08:42;;;;;;;2.17;1.10;;;;;;;;;;6192087;23;20028;-90
2023/07/20 11:11:26;;;;;;;2.38;1.02;;;;;;;;;;6191835;23;20726;-90
2023/07/20 11:13:57;;;;;;;2.58;0.95;;;;;;;;;;6191400;23;20526;-91
2023/07/20 11:16:44;;;;;;;1.05;0.90;;;;;;;;;;6190128;23;20443;-91
2023/07/20 11:19:22;;;;;;;3.88;1.05;;;;;;;;;;6193352;23;20438;-91
2023/07/20 11:21:51;;;;;;;1.73;1.17;;;;;;;;;;6192808;23;20008;-90
2023/07/20 11:24:35;;;;;;;2.67;1.02;;;;;;;;;;6194323;23;20016;-90
2023/07/20 11:27:22;;;;;;;0.93;0.70;;;;;;;;;;6201406;23;20039;-91
2023/07/20 11:29:51;;;;;;;3.80;0.90;;;;;;;;;;6192901;23;20008;-89
2023/07/20 11:32:24;;;;;;;2.75;0.60;;;;;;;;;;6167645;23;20043;-91
2023/07/20 11:34:51;;;;;;;0.60;0.60;;;;;;;;;;6193329;23;20008;-92
2023/07/20 11:37:18;;;;;;;5.15;1.10;;;;;;;;;;6191552;23;20521;-90
2023/07/20 11:39:44;;;;;;;3.92;1.38;;;;;;;;;;6194984;23;20005;-90
2023/07/20 11:42:12;;;;;;;3.58;1.10;;;;;;;;;;6192892;23;20005;-90
2023/07/20 11:44:41;;;;;;;5.57;1.17;;;;;;;;;;6175098;23;20124;-90
2023/07/20 11:47:37;;;;;;;;;;;;;;;;;;;;;
2023/07/20 11:50:05;;;;;;;2.70;1.20;;;;;;;;;;6217818;23;20020;-90
2023/07/20 11:52:32;;;;;;;5.22;1.42;;;;;;;;;;6199637;22;20015;-90
2023/07/20 11:54:59;;;;;;;1.20;0.82;;;;;;;;;;6247624;23;20008;-90
2023/07/20 12:00:38;;;;;;;3.80;0.85;;;;;;;;;;6246832;22;20011;-91
2023/07/20 12:03:13;;;;;;;2.20;1.00;;;;;;;;;;6253013;23;20000;-91
2023/07/20 12:05:50;;;;;;;1.08;0.80;;;;;;;;;;6199619;23;20054;-91
2023/07/20 12:08:48;;;;;;;1.00;0.90;;;;;;;;;;6226818;23;20040;-91
2023/07/20 12:14:20;;;;;;;2.55;1.08;;;;;;;;;;6192233;23;20553;-91
2023/07/20 12:16:56;;;;;;;1.80;0.65;;;;;;;;;;6251101;23;20004;-90
2023/07/20 12:22:48;;;;;;;1.92;0.75;;;;;;;;;;6259437;23;20008;-90
2023/07/20 12:25:27;;;;;;;1.42;0.65;;;;;;;;;;6247500;23;20012;-89
2023/07/20 12:34:09;;;;;;;1.33;0.63;;;;;;;;;;6127344;22;20083;-89
2023/07/20 12:36:47;;;;;;;2.15;1.00;;;;;;;;;;6253893;23;20004;-89
2023/07/20 12:39:25;;;;;;;2.50;1.00;;;;;;;;;;6258862;23;20004;-90
2023/07/20 12:41:57;;;;;;;1.52;0.93;;;;;;;;;;6233655;23;20012;-89
2023/07/20 12:44:32;;;;;;;3.08;1.42;;;;;;;;;;6254442;23;20035;-89
2023/07/20 12:47:10;;;;;;;2.25;1.05;;;;;;;;;;6258357;23;20009;-90
2023/07/20 12:50:01;;;;;;;2.83;1.08;;;;;;;;;;6232947;23;20099;-89
2023/07/20 12:52:47;;;;;;;7.18;0.95;;;;;;;;;;6259682;22;20011;-89
2023/07/20 12:55:23;;;;;;;;;;;;;;;;;;6255996;23;20023;-90
2023/07/20 13:00:53;;;;;;;2.80;0.90;;;;;;;;;;6214251;22;20078;-89
2023/07/20 13:03:20;;;;;;;2.53;0.85;;;;;;;;;;6255085;23;20060;-87
2023/07/20 13:05:47;;;;;;;2.90;1.15;;;;;;;;;;6229750;23;20016;-88
2023/07/20 13:08:14;;;;;;;4.20;1.10;;;;;;;;;;6227386;23;20488;-90
2023/07/20 13:10:40;;;;;;;1.45;0.98;;;;;;;;;;6248905;23;20058;-91
2023/07/20 13:13:09;;;;;;;2.50;1.10;;;;;;;;;;6246235;23;20008;-90
2023/07/20 13:15:41;;;;;;;1.60;0.80;;;;;;;;;;6247337;23;20004;-90
2023/07/20 13:18:08;;;;;;;5.93;2.58;;;;;;;;;;6247740;23;20020;-91
2023/07/20 13:20:34;;;;;;;1.70;0.90;;;;;;;;;;6223776;23;20012;-91
2023/07/20 13:23:00;;;;;;;5.53;1.17;;;;;;;;;;6221393;23;20008;-93
2023/07/20 13:25:40;;;;;;;1.30;0.85;;;;;;;;;;6251041;23;20095;-89
2023/07/20 13:28:06;;;;;;;2.03;1.13;;;;;;;;;;6248407;23;20011;-90
2023/07/20 13:30:47;;;;;;;4.20;1.30;;;;;;;;;;6251901;23;20003;-90
2023/07/20 13:33:15;;;;;;;2.28;1.55;;;;;;;;;;6232413;23;20000;-88
2023/07/20 13:35:54;;;;;;;5.50;1.42;;;;;;;;;;6236371;23;20008;-91
2023/07/20 13:38:22;;;;;;;3.17;1.90;;;;;;;;;;6259928;23;20437;-91
2023/07/20 13:41:07;;;;;;;5.95;1.35;;;;;;;;;;6256724;23;20069;-91
2023/07/20 13:43:33;;;;;;;4.00;1.48;;;;;;;;;;6227192;23;20012;-91
2023/07/20 13:46:00;;;;;;;3.50;1.30;;;;;;;;;;6230060;23;20042;-91
2023/07/20 13:48:28;;;;;;;2.30;1.40;;;;;;;;;;6256369;23;20012;-90
2023/07/20 13:50:55;;;;;;;2.63;1.33;;;;;;;;;;6255593;23;20000;-91
2023/07/20 13:53:30;;;;;;;2.10;0.98;;;;;;;;;;6232756;22;20042;-91
2023/07/20 13:56:31;;;;;;;;;;;;;;;;;;6235312;23;20066;-90
2023/07/20 13:58:56;;;;;;;1.38;1.20;;;;;;;;;;6249837;22;19899;-89
2023/07/20 14:01:36;;;;;;;6.57;2.03;;;;;;;;;;6225450;23;20043;-90
2023/07/20 14:04:13;;;;;;;3.00;1.30;;;;;;;;;;6251542;23;20011;-90
2023/07/20 14:06:52;;;;;;;3.75;1.20;;;;;;;;;;6256002;23;20018;-89
2023/07/20 14:09:25;;;;;;;2.20;1.38;;;;;;;;;;6250105;23;20016;-92
2023/07/20 14:12:03;;;;;;;4.00;1.08;;;;;;;;;;6251845;22;19988;-89
2023/07/20 14:14:38;;;;;;;3.90;1.25;;;;;;;;;;6256265;23;20015;-90
2023/07/20 14:17:14;;;;;;;;;;;;;;;;;;;;;
2023/07/20 14:19:43;;;;;;;1.38;1.02;;;;;;;;;;6261207;23;20019;-89
2023/07/20 14:22:47;;;;;;;3.38;2.00;;;;;;;;;;6225600;23;20008;-90
2023/07/20 14:25:15;;;;;;;4.93;1.80;;;;;;;;;;6261704;23;20008;-90
2023/07/20 14:27:41;;;;;;;2.78;1.27;;;;;;;;;;6233324;23;20008;-90
2023/07/20 14:30:08;;;;;;;4.47;1.05;;;;;;;;;;6237679;23;20012;-89
2023/07/20 14:32:43;;;;;;;1.42;1.00;;;;;;;;;;6226858;23;20019;-90
2023/07/20 14:35:26;;;;;;;;;;;;;;;;;;;;;
2023/07/20 14:38:06;;;;;;;6.07;1.10;;;;;;;;;;6256043;23;20044;-89
2023/07/20 14:40:33;;;;;;;1.65;0.93;;;;;;;;;;6256308;23;20105;-90
2023/07/20 14:43:03;;;;;;;2.17;0.88;;;;;;;;;;6253497;23;20027;-90
2023/07/20 14:45:47;;;;;;;2.92;1.02;;;;;;;;;;6255952;23;20087;-90
2023/07/20 14:48:16;;;;;;;1.95;0.90;;;;;;;;;;6249378;23;20091;-90
2023/07/20 14:50:49;;;;;;;4.90;1.33;;;;;;;;;;6251832;23;20164;-91
2023/07/20 14:53:28;;;;;;;2.13;0.95;;;;;;;;;;6227122;23;20385;-90
2023/07/20 14:56:16;;;;;;;7.22;1.60;;;;;;;;;;6229645;23;20639;-92
2023/07/20 14:59:20;;;;;;;3.00;1.73;;;;;;;;;;6253781;22;20012;-91
2023/07/20 15:02:22;;;;;;;3.70;1.30;;;;;;;;;;6211850;23;20015;-90
2023/07/20 15:05:13;;;;;;;5.57;1.55;;;;;;;;;;6145039;22;20010;-91
2023/07/20 15:08:09;;;;;;;3.15;1.40;;;;;;;;;;6260723;23;20368;-91
2023/07/20 15:10:49;;;;;;;3.30;1.63;;;;;;;;;;6236960;23;19992;-92
2023/07/20 15:16:15;;;;;;;3.17;1.65;;;;;;;;;;6240599;23;20008;-91
2023/07/20 15:18:41;;;;;;;7.53;1.80;;;;;;;;;;6256676;23;20015;-92
2023/07/20 15:21:08;;;;;;;3.50;1.48;;;;;;;;;;6227842;23;20004;-92
2023/07/20 15:23:37;;;;;;;4.50;1.98;;;;;;;;;;6239289;22;20095;-91
2023/07/20 15:26:21;;;;;;;;;;;;;;;;;;;;;
2023/07/20 15:28:48;;;;;;;2.20;1.30;;;;;;;;;;6143420;23;20448;-91